Timeline UpdatesTrip UpdatesNews PostsPvt PostsTravel TipsAdmin PostsConv PostsFollowed PostsChat RequestsBlog PostsPNR Posts

Disclaimer
Search
 
 
Wed Oct 1, 2014 17:46:25 ISTHomeTrainsΣChainsAtlasPNRForumGalleryNewsFAQTripsMembersLoginFeedback
No Recent News for this Train
Other Trains in the News **new
Latest...
.
Fri Dec 13, 2013 (03:40PM)
⇐ Return Journey: Train# 12833

12834/Howrah - Ahmedabad SF Express

Time-Table HAS CHANGED.
Sep 03 (10:29AM)
Change Departure Station:
Change Arrival Station:
Post a Train Travel TipPost a Train Travel Tip **new
Post a Comment/Question/Picture/VideoPost a Comment/Question/Picture/Video
Pantry/Catering
✓ Pantry Car Avbl
✓ Catering Avbl
RSA - Rake Sharing
Rake/Coach Composition
LOCO(SRC WAP 4E)-SLR-GEN-S1-S2-S3-S4-S5-S6-S7-S8-S9-S10-S11-S12-PC-S13-B1-B2-A1-A2-GEN-SLR
Loco
Loco: SRC WAP 4 ... Entry# 289462
News    PNR    Forum    Time-Table    Availability    Fare Chart    Map    Arr/Dep History    Trips    Gallery    ΣChains    X/O    Timeline    
Travel Time: 3h 48m    5 halts    Distance: 230 km    Avg Speed: 60 km/hr
Type: SuperFast
Zone: SER/South Eastern
Departs @ 09:12 (Avg 22m late)
Platform# 2
SMTWTFS
Surat/ST 
Arrives @ 13:00 (Avg 27m late)
Platform# 6
SMTWTFS
Ahmedabad Junction/ADI 

5 halts. 46 intermediate Stations between Surat and Ahmedabad Junction

Show ALL intermediate Stations  Show Old Time-Table

#CodeStation NameX/OArrivesAvgDepartsAvgHaltPFDay#KmSpeedElevZoneAddress
1HWHKolkata Howrah Junction (23)  -23:55+3221-1858.66510mERHowrah 711101, West Bengal
2MCAMecheda (6)  00:50 00:49+1100:52 00:50+192 1m--2-1800.43710mSERdist - purba Medinipur, West Bengal
3PKUPanskura Junction (6)  01:13 01:10+1101:15 01:13+122 3m--2-1788.0579mSERPanskura, West Bengal
4KGPKharagpur Junction (10)  02:00+802:05+85m32-1743.67742mSERKharagpur, West Bengal
5TATATatanagar Junction (5)XO  03:50+1703:55+175m--2-1608.567164mSER91-657-2423026, Jharkhand
6CKPChakradharpur (3)  04:50 04:51+1904:57 04:58+187m12-1546.279235mSERChakradharpur (West Singhbhum), Jharkhand
7ROURourkela Junction (5)X  06:15+2206:30+2215m32-1445.264198mSERRourkela, Odisha
8GPRaj Gangpur (3)  06:59 06:58+2207:00 06:59+231m12-1415.472237mSERRaj Ganpur, Odisha
9BMBBamra (3)  07:29 07:28+3007:30 07:29+311m--2-1380.756259mSERBamra PH : 06642-229268, Odisha
10JSGJharsuguda Junction (5)X  08:08+2608:10+292m--2-1344.288236mSERJharsuguda, Odisha
11BRJNBrajrajnagar  08:18+3708:20+372m--2-1332.667212mSECRBrajrajnagar, Odisha
12BPHBelpahar  08:28+3708:30+372m--2-1323.685 SECRBelpahar, Odisha
13RIGRaigarh (3)X  09:06+4309:11+425m--2-1272.693220mSECRRaigarh, Chhattisgarh
14KHSKharsiaX  09:33+5209:35+522m--2-1238.691 SECRNational Highway 200, Chhattisgarh
15BUABaradwarX  09:55+1:0009:57+1:002m--2-1208.355 SECRJanjgir-Champa, Chhattisgarh
16CPHChampa Junction (3)X  10:14+1:0010:19+575m32-1192.872264mSECRNational Highway 200 (07819-245767), Chhattisgarh
17NIANailaX  10:28+5910:30+592m--2-1182.075273mSECRJanjgir, Chhattisgarh
18AKTAkaltara (4)  10:42+5910:44+592m--2-1167.029284mSECRDist. Janjgir Champa, Chhattisgarh
19BSPBilaspur Junction (8)X  11:40+2911:55+3515m22-1139.877271mSECRBilaspur, Chhattisgarh
20BYTBhatapara (4)X  12:31+4012:33+392m22-1093.687270mSECRBanjari Road, Chhattisgarh
21TLDTilda (3)X  12:51+3912:53+392m--2-1067.655 SECRBanjari Rd, Chhattisgarh
22RRaipur Junction (6)X  13:35+3613:45+3610m52-1029.480297mSECRRaipur, Chhattisgarh
23BPHBBhilai Power House (3)XO  14:06+1814:08+182m12-1001.417312mSECRBhilai, Chhattisgarh
24DURGDurg Junction (6)X  14:40+2514:45+275m42-992.487299mSECRPh: 91-788-2322059, Chhattisgarh
25RJNRaj Nandgaon (3)  15:06+3715:08+362m--2-962.086313mSECRRajnandgaon, Chhattisgarh
26DGGDongargarh (2)  15:30+4315:32+442m12-930.476 SECRDongargarh, Chhattisgarh
27AGNAmgaon (2)X  16:12+4916:14+492m--2-880.047317mSECRGondia, Maharashtra
28GGondia Junction (7)X  16:43+3916:48+395m22-857.292316mSECRGondia 441601, Maharashtra
29TROTirora (3)  17:07+4517:09+442m--2-827.972282mSECRDist Gondia, Maharashtra
30TMRTumsar Road (5)  17:26+4117:28+412m--2-807.572267mSECRDistt. Bhandara, Maharashtra
31BRDBhandara Road (3)X  17:43+4117:45+412m22-789.693266mSECRState Highway 252 Bhandara District, Maharashtra
32KPKamptee (3)X  18:16+4518:18+442m--2-741.620290mSECRKamptee, Maharashtra
33NGPNagpur Junction (8)X  19:00+3219:10+3510m32-727.320314mCRNagpur 440001, Maharashtra
34AJNIAjni (3)X  19:19+4219:20+421m32-724.371310mCRNagpur 440003, Maharashtra
35WRWardha Junction (4)X  20:24+3720:27+373m12-648.481289mCRWardha 442001, Maharashtra
36PLOPulgaon Junction (3)  20:49+4120:50+421m22-618.967273mCRPulgaon, Maharashtra
37DMNDhamangaon (2)  21:08+4121:09+431m--2-598.967300mCRDhamangaon, Maharashtra
38CNDChandur (2)X  21:24+4321:25+441m--2-582.238331mCRAmravati Distt, Maharashtra
39BDBadnera Junction (4)X  22:10+3022:15+315m12-553.586335mCRBadnera (Amravati) 444701, Maharashtra
40MZRMurtizapur (3)X  22:44+4022:45+421m--2-511.774303mCRMurtajapur, Maharashtra
41AKAkola Junction (7)  23:15+4323:20+455m12-474.593284mCRAkola-444001, Maharashtra
42SEGShegaon (2)  23:44+5023:45+511m22-437.368281mCRShegaon 444203, Maharashtra
43JMJalamb Junction (3)  23:56+5023:58+512m12-424.967259mCRJalamb, Maharashtra
44NNNandura (2)  00:09+5200:10+561m13-412.770267mCRNandura, Maharashtra
45MKUMalkapur (2)  00:34+5200:35+541m23-384.850252mCRMalkapur, Maharashtra
46BSLBhusaval Junction (8)XO  01:35+4301:45+4310m43-334.941208mCRBhusaval 425201, Maharashtra
47JLJalgaon Junction (4)X  02:20+3502:25+355m23-310.851213mCRJalgaon 425001, Maharashtra
48DXGDharangaon (2)  03:00+4203:01+431m13-281.151217mWRDharangaon, Maharashtra
49ANAmalner (2)  03:30+3903:33+383m13-256.273188mWRAmalner, Maharashtra
50SNKSindkheda (1)  04:07+4504:08+451m13-214.645178mWRState Highway 11, Maharashtra
51DDEDondaicha (2)X  04:34+4104:35+421m23-195.249163mWRDondaicha, Maharashtra
52NDBNandurbar (3)  05:17+3605:25+368m13-160.850203mWRNandurbar, Maharashtra
53NWUNavapur (2)  06:35+2806:37+322m--3-102.955124mWRNavapur, Gujarat
54VYAVyara (2)X  07:23+3007:25+302m13-61.06090mWRVyara, Gujarat
55MIDMadhi (1)  07:40+3207:42+322m13-46.05945mWRMadhi, Gujarat
56BIYBardoli (2)X  07:57+3407:59+332m--3-31.23735mWRNear Bardoli Sugar Factory Bardoli, Gujarat
57UDNUdhna Junction (3)XO  08:43+2508:45+262m13-4.01416mWRUdhna 394210, Gujarat
58STSurat (4)»X  09:02+2209:12+2210m230.08119mWRSurat 395001, Gujarat
59BHBharuch Junction (5)X  09:56+4209:58+422m3359.37419mWRBharuch, Gujarat
60BRCVadodara Junction (7)X  10:55+4411:00+445m33129.87236mWRVadodara 390005, Gujarat
61ANNDAnand Junction (6)  11:30+3811:32+392m23165.65344mWRAnand, Gujarat
62NDNadiad Junction (4)X  11:53+4911:55+492m--3184.05837mWRNadiad, Gujarat
63MANManinagar (2)X  12:39+2612:41+262m13226.41050mWRAhmadabad, Gujarat
64ADIAhmedabad Junction (12)•  13:00+27-63229.6-51mWRAhmedabad, Gujarat
Scroll to Top
Scroll to Bottom